Airfield :
LOGIN :

Register | Disclaimer

   EN    FR    IT 

 










Legend :    VFR   Marginal VFR   IFR   Intensive IFR   Very Intensive IFR
Visi :
Ceiling :
>= 8 km
>= 3000ft
5 to 8 km
1000 to 3000 ft
1500m to 5 km
500 to 1000 ft
800 to 1500m
200 to 500 ft
< 800m
< 200 ft
Symbols :   Thunderstorms  Fog  Heavy snow  Heavy precipitations  Wind > 20 kt
SIGMETs :     Misc.  Thunderstorms  Icing  Turbulence  Mountain Waves  Volcanic Ashes






- Airport Elevation : 23 ft
- IATA code : XFW


EDHI - Hamburg Finkenwerder

CURRENT METAR :
  • 290720Z AUTO 25010KT 9999 // SCT008/// BKN013/// OVC032/// 11/10 Q1011

EXPIRED METARs :
  • 290650Z AUTO 25010KT 9999 // SCT009/// BKN014/// OVC030/// 10/10 Q1011
  • 290620Z AUTO 24008KT 9999 // FEW009/// SCT014/// OVC028/// 10/10 Q1010
  • 290550Z AUTO 25007KT 9999 // SCT014/// BKN017/// OVC050/// 10/09 Q1010
  • 290520Z AUTO 24007KT 9999 // BKN015/// BKN024/// OVC029/// 09/09 Q1010
  • 290450Z AUTO 24007KT 9000 // FEW014/// SCT016/// OVC029/// 09/09 Q1010

Expired Forecast.



MET'MAP, your aeronautical weather chart ! - Copyright ORBIFLY December 2007 - Disclaimer

ORBIFLY MET'MAP TEAM :

Programming & Development : Alexandra Zaïnal
Original concept : Baudouin d'Aumeries
Technical & hardware support : Manuel Goepfert
Assistance : Marc-Olivier Méhu

Contact : metmap@orbifly.com




SOURCES & CREDITS :

   NOAA